Terminal Aerodrome Forecast
Issued by NWS

Home | Current Version | Previous Version | Text Only | Print | Product List | Glossary On
Versions: 1 2 3 4 5 6 7 8 9 10 11 12 13 14 15 16 17 18 19 20 21 22 23 24 25 26
259
FTUS41 KBUF 100911 AAA
TAFJHW
TAF AMD
KJHW 100911Z 1009/1106 25006KT 1SM -SN OVC008
     FM101200 26010KT 1/2SM SN OVC005
     FM102200 24008KT 2SM -SN OVC015
     FM110200 22008KT P6SM BKN035
      AMD LTD TO CLD VIS AND WIND=

USA.gov is the U.S. government's official web portal to all federal, state and local government web resources and services.